Mount Uniacke, Canada
Current Conditions -  °F | °C
As of 4:00 PM on Monday 22 Dec 2014 (Local Time) from CYHZ Reporting Station
Light Snow Light Snow  
Wind Chill: 19°   Ceiling: 1800
Heat Index: 27°   Visibility: 15mi
Dew Point: 23°   Wind: 7mph
Humidity: 86%   Direction: 30°NNE
Pressure: 30.42"   Gusts: NA
Location:  44.88°N, 63.83°W
Report Text: CYHZ 222000Z 03006KT 15SM -SN OVC018 M03/M05 A3042 RMK SC8 SLP308
Loading
Personal Weather Stations






























Interactive Weather Map New forecast layout! Learn more

10-Day Weather Forecast

Advertisements
Track Severe Weather on mobile